sensor_id;sensor_type;location;lat;lon;timestamp;pressure;altitude;pressure_sealevel;temperature;humidity
61296;BME280;47168;48.104;20.730;2022-09-01T00:01:26;99975.03;;;16.11;63.89
61296;BME280;47168;48.104;20.730;2022-09-01T00:03:52;99975.44;;;16.07;63.98
61296;BME280;47168;48.104;20.730;2022-09-01T00:06:21;99977.97;;;16.08;64.78
61296;BME280;47168;48.104;20.730;2022-09-01T00:08:49;99981.78;;;16.06;63.88
61296;BME280;47168;48.104;20.730;2022-09-01T00:11:15;99979.53;;;16.01;64.07
61296;BME280;47168;48.104;20.730;2022-09-01T00:13:40;99975.31;;;15.99;64.43
61296;BME280;47168;48.104;20.730;2022-09-01T00:16:06;99984.31;;;15.98;65.57
61296;BME280;47168;48.104;20.730;2022-09-01T00:18:32;99971.28;;;15.85;66.01
61296;BME280;47168;48.104;20.730;2022-09-01T00:20:58;99969.72;;;15.92;65.66
61296;BME280;47168;48.104;20.730;2022-09-01T00:23:26;99971.81;;;15.88;66.55
61296;BME280;47168;48.104;20.730;2022-09-01T00:25:53;99962.31;;;15.86;66.52
61296;BME280;47168;48.104;20.730;2022-09-01T00:28:19;99968.47;;;15.86;64.83
61296;BME280;47168;48.104;20.730;2022-09-01T00:30:45;99956.72;;;15.89;63.54
61296;BME280;47168;48.104;20.730;2022-09-01T00:33:10;99968.47;;;15.86;64.13
61296;BME280;47168;48.104;20.730;2022-09-01T00:35:35;99967.91;;;15.83;65.75
61296;BME280;47168;48.104;20.730;2022-09-01T00:38:01;99975.34;;;15.79;66.76
61296;BME280;47168;48.104;20.730;2022-09-01T00:40:26;99976.59;;;15.85;65.50
61296;BME280;47168;48.104;20.730;2022-09-01T00:42:52;99977.31;;;15.77;67.82
61296;BME280;47168;48.104;20.730;2022-09-01T00:45:18;99976.44;;;15.77;67.24
61296;BME280;47168;48.104;20.730;2022-09-01T00:47:45;99970.53;;;15.73;66.84
61296;BME280;47168;48.104;20.730;2022-09-01T00:50:12;99972.97;;;15.76;67.64
61296;BME280;47168;48.104;20.730;2022-09-01T00:52:43;99973.50;;;15.80;66.44
61296;BME280;47168;48.104;20.730;2022-09-01T00:55:30;99969.56;;;15.74;65.82
61296;BME280;47168;48.104;20.730;2022-09-01T00:57:58;99979.78;;;15.69;66.50
61296;BME280;47168;48.104;20.730;2022-09-01T01:00:28;99977.94;;;15.60;66.16
61296;BME280;47168;48.104;20.730;2022-09-01T01:02:54;99976.28;;;15.59;65.00
61296;BME280;47168;48.104;20.730;2022-09-01T01:05:24;99975.84;;;15.63;65.11
61296;BME280;47168;48.104;20.730;2022-09-01T01:07:53;99982.44;;;15.59;66.69
61296;BME280;47168;48.104;20.730;2022-09-01T01:10:20;99980.63;;;15.60;65.20
61296;BME280;47168;48.104;20.730;2022-09-01T01:12:47;99975.72;;;15.65;63.64
61296;BME280;47168;48.104;20.730;2022-09-01T01:15:16;99978.66;;;15.71;63.90
61296;BME280;47168;48.104;20.730;2022-09-01T01:17:42;99978.28;;;15.86;62.36
61296;BME280;47168;48.104;20.730;2022-09-01T01:20:08;99975.91;;;16.02;61.73
61296;BME280;47168;48.104;20.730;2022-09-01T01:23:49;99973.50;;;16.09;61.57
61296;BME280;47168;48.104;20.730;2022-09-01T01:25:59;99974.91;;;16.13;61.89
61296;BME280;47168;48.104;20.730;2022-09-01T01:28:30;99974.19;;;16.11;61.94
61296;BME280;47168;48.104;20.730;2022-09-01T01:30:59;99979.38;;;16.13;62.23
61296;BME280;47168;48.104;20.730;2022-09-01T01:33:37;99982.59;;;16.16;60.65
61296;BME280;47168;48.104;20.730;2022-09-01T01:36:20;99965.41;;;16.01;62.19
61296;BME280;47168;48.104;20.730;2022-09-01T01:38:53;99974.91;;;16.03;61.77
61296;BME280;47168;48.104;20.730;2022-09-01T01:41:19;99975.91;;;16.02;61.82
61296;BME280;47168;48.104;20.730;2022-09-01T01:43:46;99978.66;;;16.20;61.45
61296;BME280;47168;48.104;20.730;2022-09-01T01:46:14;99980.63;;;16.18;62.00
61296;BME280;47168;48.104;20.730;2022-09-01T01:48:42;99970.13;;;16.07;60.33
61296;BME280;47168;48.104;20.730;2022-09-01T01:51:09;99978.97;;;16.07;60.13
61296;BME280;47168;48.104;20.730;2022-09-01T01:53:36;99973.38;;;16.10;59.36
61296;BME280;47168;48.104;20.730;2022-09-01T01:56:02;99969.44;;;16.15;59.32
61296;BME280;47168;48.104;20.730;2022-09-01T01:58:29;99970.53;;;16.12;60.95
61296;BME280;47168;48.104;20.730;2022-09-01T02:00:56;99969.41;;;16.24;60.40
61296;BME280;47168;48.104;20.730;2022-09-01T02:03:26;99960.97;;;16.39;59.85
61296;BME280;47168;48.104;20.730;2022-09-01T02:05:55;99958.19;;;16.30;59.27
61296;BME280;47168;48.104;20.730;2022-09-01T02:08:23;99967.84;;;16.32;59.12
61296;BME280;47168;48.104;20.730;2022-09-01T02:10:52;99961.13;;;16.37;59.16
61296;BME280;47168;48.104;20.730;2022-09-01T02:13:20;99962.94;;;16.37;57.70
61296;BME280;47168;48.104;20.730;2022-09-01T02:15:51;99955.63;;;16.39;58.58
61296;BME280;47168;48.104;20.730;2022-09-01T02:18:31;99960.81;;;16.40;58.61
61296;BME280;47168;48.104;20.730;2022-09-01T02:20:59;99950.47;;;16.37;57.45
61296;BME280;47168;48.104;20.730;2022-09-01T02:23:25;99957.63;;;16.27;57.66
61296;BME280;47168;48.104;20.730;2022-09-01T02:25:54;99964.06;;;16.34;58.43
61296;BME280;47168;48.104;20.730;2022-09-01T02:28:21;99957.47;;;16.38;56.76
61296;BME280;47168;48.104;20.730;2022-09-01T02:30:51;99951.47;;;16.26;57.71
61296;BME280;47168;48.104;20.730;2022-09-01T02:33:20;99944.03;;;16.30;57.49
61296;BME280;47168;48.104;20.730;2022-09-01T02:36:07;99955.94;;;16.36;57.62
61296;BME280;47168;48.104;20.730;2022-09-01T02:38:33;99955.06;;;16.45;56.81
61296;BME280;47168;48.104;20.730;2022-09-01T02:41:00;99964.34;;;16.41;56.41
61296;BME280;47168;48.104;20.730;2022-09-01T02:43:27;99963.47;;;16.40;56.30
61296;BME280;47168;48.104;20.730;2022-09-01T02:45:59;99959.00;;;16.51;56.08
61296;BME280;47168;48.104;20.730;2022-09-01T02:48:29;99969.13;;;16.37;57.62
61296;BME280;47168;48.104;20.730;2022-09-01T02:50:58;99961.69;;;16.31;57.25
61296;BME280;47168;48.104;20.730;2022-09-01T02:53:26;99961.00;;;16.29;57.03
61296;BME280;47168;48.104;20.730;2022-09-01T02:55:52;99953.84;;;16.29;57.62
61296;BME280;47168;48.104;20.730;2022-09-01T02:58:18;99953.59;;;16.23;58.10
61296;BME280;47168;48.104;20.730;2022-09-01T03:00:45;99942.22;;;16.30;57.28
61296;BME280;47168;48.104;20.730;2022-09-01T03:03:16;99952.72;;;16.32;56.69
61296;BME280;47168;48.104;20.730;2022-09-01T03:05:44;99942.09;;;16.22;57.18
61296;BME280;47168;48.104;20.730;2022-09-01T03:08:10;99940.00;;;16.16;57.63
61296;BME280;47168;48.104;20.730;2022-09-01T03:10:40;99941.13;;;16.14;58.30
61296;BME280;47168;48.104;20.730;2022-09-01T03:13:15;99937.47;;;16.24;56.97
61296;BME280;47168;48.104;20.730;2022-09-01T03:15:41;99931.72;;;16.29;57.52
61296;BME280;47168;48.104;20.730;2022-09-01T03:18:08;99933.25;;;16.22;57.63
61296;BME280;47168;48.104;20.730;2022-09-01T03:20:36;99923.31;;;16.24;58.10
61296;BME280;47168;48.104;20.730;2022-09-01T03:23:06;99932.81;;;16.26;56.33
61296;BME280;47168;48.104;20.730;2022-09-01T03:25:35;99923.59;;;16.21;57.26
61296;BME280;47168;48.104;20.730;2022-09-01T03:28:01;99926.00;;;16.14;56.46
61296;BME280;47168;48.104;20.730;2022-09-01T03:30:32;99926.69;;;16.16;58.50
61296;BME280;47168;48.104;20.730;2022-09-01T03:32:59;99924.84;;;16.17;60.46
61296;BME280;47168;48.104;20.730;2022-09-01T03:35:29;99929.25;;;15.98;59.88
61296;BME280;47168;48.104;20.730;2022-09-01T03:37:56;99915.81;;;15.90;60.56
61296;BME280;47168;48.104;20.730;2022-09-01T03:40:24;99914.28;;;15.87;60.94
61296;BME280;47168;48.104;20.730;2022-09-01T03:42:52;99924.38;;;15.84;59.83
61296;BME280;47168;48.104;20.730;2022-09-01T03:45:20;99925.91;;;15.86;59.61
61296;BME280;47168;48.104;20.730;2022-09-01T03:47:45;99918.31;;;15.91;59.06
61296;BME280;47168;48.104;20.730;2022-09-01T03:50:17;99918.19;;;15.83;59.29
61296;BME280;47168;48.104;20.730;2022-09-01T03:52:47;99926.75;;;15.77;58.92
61296;BME280;47168;48.104;20.730;2022-09-01T03:55:19;99926.03;;;15.85;61.71
61296;BME280;47168;48.104;20.730;2022-09-01T03:57:55;99924.34;;;15.74;60.63
61296;BME280;47168;48.104;20.730;2022-09-01T04:00:23;99928.81;;;15.73;60.15
61296;BME280;47168;48.104;20.730;2022-09-01T04:02:55;99922.50;;;15.74;58.59
61296;BME280;47168;48.104;20.730;2022-09-01T04:05:25;99919.16;;;15.63;59.44
61296;BME280;47168;48.104;20.730;2022-09-01T04:07:54;99933.75;;;15.78;59.75
61296;BME280;47168;48.104;20.730;2022-09-01T04:10:20;99931.91;;;15.88;59.18
61296;BME280;47168;48.104;20.730;2022-09-01T04:12:46;99937.09;;;15.90;57.26
61296;BME280;47168;48.104;20.730;2022-09-01T04:15:13;99919.88;;;15.94;58.58
61296;BME280;47168;48.104;20.730;2022-09-01T04:17:41;99941.44;;;16.01;58.53
61296;BME280;47168;48.104;20.730;2022-09-01T04:20:26;99934.16;;;15.93;58.85
61296;BME280;47168;48.104;20.730;2022-09-01T04:22:51;99929.25;;;15.88;58.83
61296;BME280;47168;48.104;20.730;2022-09-01T04:25:18;99936.94;;;15.91;60.39
61296;BME280;47168;48.104;20.730;2022-09-01T04:27:51;99923.66;;;15.91;59.81
61296;BME280;47168;48.104;20.730;2022-09-01T04:30:22;99927.84;;;15.94;59.22
61296;BME280;47168;48.104;20.730;2022-09-01T04:32:56;99926.28;;;16.01;59.08
61296;BME280;47168;48.104;20.730;2022-09-01T04:35:22;99927.69;;;16.05;60.29
61296;BME280;47168;48.104;20.730;2022-09-01T04:37:57;99929.66;;;15.93;58.47
61296;BME280;47168;48.104;20.730;2022-09-01T04:40:22;99939.63;;;15.91;60.34
61296;BME280;47168;48.104;20.730;2022-09-01T04:42:48;99945.06;;;15.90;60.40
61296;BME280;47168;48.104;20.730;2022-09-01T04:45:14;99946.03;;;15.99;61.13
61296;BME280;47168;48.104;20.730;2022-09-01T04:47:40;99942.41;;;15.90;59.50
61296;BME280;47168;48.104;20.730;2022-09-01T04:50:10;99946.63;;;15.83;60.68
61296;BME280;47168;48.104;20.730;2022-09-01T04:52:44;99943.41;;;15.89;61.17
61296;BME280;47168;48.104;20.730;2022-09-01T04:55:11;99945.75;;;16.02;60.85
61296;BME280;47168;48.104;20.730;2022-09-01T04:57:43;99940.44;;;16.11;59.58
61296;BME280;47168;48.104;20.730;2022-09-01T05:00:14;99948.97;;;16.15;60.60
61296;BME280;47168;48.104;20.730;2022-09-01T05:02:50;99938.03;;;16.18;60.38
61296;BME280;47168;48.104;20.730;2022-09-01T05:05:21;99945.03;;;16.19;57.47
61296;BME280;47168;48.104;20.730;2022-09-01T05:07:48;99935.34;;;16.28;57.79
61296;BME280;47168;48.104;20.730;2022-09-01T05:10:21;99942.06;;;16.32;58.75
61296;BME280;47168;48.104;20.730;2022-09-01T05:12:50;99936.63;;;16.24;60.17
61296;BME280;47168;48.104;20.730;2022-09-01T05:15:16;99934.81;;;16.24;58.04
61296;BME280;47168;48.104;20.730;2022-09-01T05:17:42;99937.31;;;16.36;60.27
61296;BME280;47168;48.104;20.730;2022-09-01T05:20:09;99937.88;;;16.29;61.73
61296;BME280;47168;48.104;20.730;2022-09-01T05:22:36;99938.00;;;16.28;60.26
61296;BME280;47168;48.104;20.730;2022-09-01T05:25:06;99938.84;;;16.28;60.36
61296;BME280;47168;48.104;20.730;2022-09-01T05:27:40;99939.13;;;16.25;59.50
61296;BME280;47168;48.104;20.730;2022-09-01T05:30:07;99945.72;;;16.21;62.11
61296;BME280;47168;48.104;20.730;2022-09-01T05:32:34;99949.06;;;16.33;59.41
61296;BME280;47168;48.104;20.730;2022-09-01T05:35:04;99951.19;;;16.29;58.44
61296;BME280;47168;48.104;20.730;2022-09-01T05:37:33;99961.84;;;16.29;62.38
61296;BME280;47168;48.104;20.730;2022-09-01T05:40:00;99960.16;;;16.28;61.46
61296;BME280;47168;48.104;20.730;2022-09-01T05:42:26;99957.34;;;16.30;61.50
61296;BME280;47168;48.104;20.730;2022-09-01T05:44:53;99962.09;;;16.36;61.21
61296;BME280;47168;48.104;20.730;2022-09-01T05:47:18;99963.34;;;16.32;61.79
61296;BME280;47168;48.104;20.730;2022-09-01T05:49:44;99957.63;;;16.27;64.49
61296;BME280;47168;48.104;20.730;2022-09-01T05:52:09;99953.72;;;16.21;64.26
61296;BME280;47168;48.104;20.730;2022-09-01T05:54:35;99956.66;;;16.28;62.45
61296;BME280;47168;48.104;20.730;2022-09-01T05:57:00;99956.50;;;16.29;62.92
61296;BME280;47168;48.104;20.730;2022-09-01T05:59:28;99960.44;;;16.25;60.75
61296;BME280;47168;48.104;20.730;2022-09-01T06:01:57;99957.63;;;16.27;64.96
61296;BME280;47168;48.104;20.730;2022-09-01T06:04:23;99961.97;;;16.28;65.51
61296;BME280;47168;48.104;20.730;2022-09-01T06:06:49;99958.63;;;16.26;64.90
61296;BME280;47168;48.104;20.730;2022-09-01T06:09:16;99953.28;;;16.36;65.91
61296;BME280;47168;48.104;20.730;2022-09-01T06:11:46;99950.75;;;16.34;64.85
61296;BME280;47168;48.104;20.730;2022-09-01T06:14:16;99952.00;;;16.40;62.47
61296;BME280;47168;48.104;20.730;2022-09-01T06:16:42;99944.69;;;16.42;63.37
61296;BME280;47168;48.104;20.730;2022-09-01T06:19:08;99954.66;;;16.40;63.43
61296;BME280;47168;48.104;20.730;2022-09-01T06:21:35;99946.53;;;16.41;64.21
61296;BME280;47168;48.104;20.730;2022-09-01T06:24:00;99945.09;;;16.47;62.41
61296;BME280;47168;48.104;20.730;2022-09-01T06:26:31;99944.53;;;16.53;60.32
61296;BME280;47168;48.104;20.730;2022-09-01T06:29:03;99954.91;;;16.56;63.50
61296;BME280;47168;48.104;20.730;2022-09-01T06:31:32;99950.22;;;16.68;62.06
61296;BME280;47168;48.104;20.730;2022-09-01T06:34:01;99942.38;;;16.66;60.71
61296;BME280;47168;48.104;20.730;2022-09-01T06:36:28;99951.44;;;16.74;64.57
61296;BME280;47168;48.104;20.730;2022-09-01T06:38:57;99957.09;;;16.71;59.81
61296;BME280;47168;48.104;20.730;2022-09-01T06:41:25;99946.38;;;16.80;62.61
61296;BME280;47168;48.104;20.730;2022-09-01T06:43:52;99940.63;;;16.85;59.65
61296;BME280;47168;48.104;20.730;2022-09-01T06:46:20;99943.72;;;16.80;61.73
61296;BME280;47168;48.104;20.730;2022-09-01T06:48:46;99947.03;;;16.92;65.73
61296;BME280;47168;48.104;20.730;2022-09-01T06:51:14;99945.25;;;16.93;64.70
61296;BME280;47168;48.104;20.730;2022-09-01T06:53:42;99932.50;;;16.87;61.00
61296;BME280;47168;48.104;20.730;2022-09-01T06:56:08;99937.25;;;16.83;59.56
61296;BME280;47168;48.104;20.730;2022-09-01T06:58:42;99941.56;;;16.94;61.17
61296;BME280;47168;48.104;20.730;2022-09-01T07:01:11;99944.38;;;16.92;59.95
61296;BME280;47168;48.104;20.730;2022-09-01T07:03:40;99937.00;;;16.86;57.35
61296;BME280;47168;48.104;20.730;2022-09-01T07:06:06;99930.38;;;16.90;57.41
61296;BME280;47168;48.104;20.730;2022-09-01T07:08:31;99943.41;;;16.93;57.30
61296;BME280;47168;48.104;20.730;2022-09-01T07:11:06;99938.81;;;17.13;61.29
61296;BME280;47168;48.104;20.730;2022-09-01T07:13:33;99940.78;;;17.11;60.29
61296;BME280;47168;48.104;20.730;2022-09-01T07:16:00;99941.91;;;17.09;55.08
61296;BME280;47168;48.104;20.730;2022-09-01T07:18:28;99938.28;;;17.10;56.56
61296;BME280;47168;48.104;20.730;2022-09-01T07:20:55;99947.97;;;17.11;60.24
61296;BME280;47168;48.104;20.730;2022-09-01T07:23:21;99951.78;;;17.26;64.47
61296;BME280;47168;48.104;20.730;2022-09-01T07:25:49;99939.66;;;17.32;60.31
61296;BME280;47168;48.104;20.730;2022-09-01T07:28:19;99945.38;;;17.37;54.50
61296;BME280;47168;48.104;20.730;2022-09-01T07:30:47;99950.19;;;17.33;55.33
61296;BME280;47168;48.104;20.730;2022-09-01T07:33:15;99948.81;;;17.47;53.07
61296;BME280;47168;48.104;20.730;2022-09-01T07:35:41;99952.03;;;17.51;54.21
61296;BME280;47168;48.104;20.730;2022-09-01T07:38:08;99944.50;;;17.64;56.65
61296;BME280;47168;48.104;20.730;2022-09-01T07:40:36;99951.13;;;17.78;53.46
61296;BME280;47168;48.104;20.730;2022-09-01T07:43:19;99940.16;;;17.81;51.96
61296;BME280;47168;48.104;20.730;2022-09-01T07:45:48;99945.84;;;17.86;51.37
61296;BME280;47168;48.104;20.730;2022-09-01T07:48:18;99941.22;;;17.88;51.76
61296;BME280;47168;48.104;20.730;2022-09-01T07:50:46;99927.06;;;18.14;51.13
61296;BME280;47168;48.104;20.730;2022-09-01T07:53:17;99939.13;;;18.18;55.35
61296;BME280;47168;48.104;20.730;2022-09-01T07:55:44;99937.88;;;18.12;50.68
61296;BME280;47168;48.104;20.730;2022-09-01T07:58:11;99963.00;;;18.20;51.58
61296;BME280;47168;48.104;20.730;2022-09-01T08:00:39;99950.47;;;18.20;47.23
61296;BME280;47168;48.104;20.730;2022-09-01T08:03:04;99943.06;;;18.14;48.30
61296;BME280;47168;48.104;20.730;2022-09-01T08:05:30;99952.53;;;18.26;48.34
61296;BME280;47168;48.104;20.730;2022-09-01T08:07:56;99947.19;;;18.26;50.20
61296;BME280;47168;48.104;20.730;2022-09-01T08:10:22;99952.09;;;18.39;54.16
61296;BME280;47168;48.104;20.730;2022-09-01T08:12:47;99948.72;;;18.63;49.81
61296;BME280;47168;48.104;20.730;2022-09-01T08:15:13;99943.53;;;18.62;50.67
61296;BME280;47168;48.104;20.730;2022-09-01T08:17:41;99950.78;;;18.69;53.08
61296;BME280;47168;48.104;20.730;2022-09-01T08:20:07;99956.59;;;18.65;50.35
61296;BME280;47168;48.104;20.730;2022-09-01T08:22:34;99967.44;;;18.63;48.11
61296;BME280;47168;48.104;20.730;2022-09-01T08:25:03;99960.59;;;18.69;48.75
61296;BME280;47168;48.104;20.730;2022-09-01T08:27:31;99960.50;;;18.79;48.64
61296;BME280;47168;48.104;20.730;2022-09-01T08:29:57;99955.88;;;18.89;49.25
61296;BME280;47168;48.104;20.730;2022-09-01T08:32:24;99947.56;;;18.92;49.21
61296;BME280;47168;48.104;20.730;2022-09-01T08:34:50;99949.41;;;18.92;47.06
61296;BME280;47168;48.104;20.730;2022-09-01T08:37:15;99942.38;;;18.91;48.24
61296;BME280;47168;48.104;20.730;2022-09-01T08:39:41;99946.09;;;18.98;47.43
61296;BME280;47168;48.104;20.730;2022-09-01T08:44:38;99956.59;;;18.99;50.68
61296;BME280;47168;48.104;20.730;2022-09-01T08:47:10;99956.47;;;19.09;47.39
61296;BME280;47168;48.104;20.730;2022-09-01T08:49:37;99958.00;;;19.12;45.95
61296;BME280;47168;48.104;20.730;2022-09-01T08:54:54;99959.53;;;19.31;47.86
61296;BME280;47168;48.104;20.730;2022-09-01T08:57:34;99954.44;;;19.70;44.81
61296;BME280;47168;48.104;20.730;2022-09-01T09:00:00;99945.06;;;19.58;43.55
61296;BME280;47168;48.104;20.730;2022-09-01T09:02:44;99955.75;;;19.66;46.18
61296;BME280;47168;48.104;20.730;2022-09-01T09:13:23;99949.22;;;20.34;43.98
61296;BME280;47168;48.104;20.730;2022-09-01T09:15:54;99949.81;;;20.78;45.21
61296;BME280;47168;48.104;20.730;2022-09-01T09:21:20;99938.94;;;21.10;41.06
61296;BME280;47168;48.104;20.730;2022-09-01T09:23:50;99945.16;;;21.11;41.36
61296;BME280;47168;48.104;20.730;2022-09-01T09:26:19;99937.56;;;20.91;40.74
61296;BME280;47168;48.104;20.730;2022-09-01T09:28:46;99929.28;;;20.93;43.83
61296;BME280;47168;48.104;20.730;2022-09-01T09:31:27;99932.94;;;21.08;42.63
61296;BME280;47168;48.104;20.730;2022-09-01T09:33:54;99928.03;;;21.12;40.44
61296;BME280;47168;48.104;20.730;2022-09-01T09:36:23;99933.69;;;21.25;43.30
61296;BME280;47168;48.104;20.730;2022-09-01T09:39:05;99933.16;;;21.53;40.67
61296;BME280;47168;48.104;20.730;2022-09-01T09:41:31;99938.78;;;21.43;39.11
61296;BME280;47168;48.104;20.730;2022-09-01T09:47:00;99929.88;;;21.12;39.05
61296;BME280;47168;48.104;20.730;2022-09-01T09:49:29;99937.81;;;21.05;39.31
61296;BME280;47168;48.104;20.730;2022-09-01T09:54:29;99924.59;;;21.26;41.82
61296;BME280;47168;48.104;20.730;2022-09-01T09:57:10;99919.00;;;21.36;45.47
61296;BME280;47168;48.104;20.730;2022-09-01T09:59:43;99924.38;;;21.36;40.63
61296;BME280;47168;48.104;20.730;2022-09-01T10:02:24;99914.50;;;21.60;39.20
61296;BME280;47168;48.104;20.730;2022-09-01T10:04:52;99928.59;;;21.62;39.12
61296;BME280;47168;48.104;20.730;2022-09-01T10:07:35;99933.28;;;21.60;38.36
61296;BME280;47168;48.104;20.730;2022-09-01T10:10:03;99928.03;;;21.43;38.50
61296;BME280;47168;48.104;20.730;2022-09-01T10:12:30;99918.81;;;21.38;39.51
61296;BME280;47168;48.104;20.730;2022-09-01T10:15:04;99913.16;;;21.33;38.13
61296;BME280;47168;48.104;20.730;2022-09-01T10:17:34;99916.91;;;21.46;41.81
61296;BME280;47168;48.104;20.730;2022-09-01T10:20:40;99917.31;;;21.67;41.73
61296;BME280;47168;48.104;20.730;2022-09-01T10:23:00;99908.66;;;21.79;41.43
61296;BME280;47168;48.104;20.730;2022-09-01T10:25:28;99909.16;;;21.98;40.51
61296;BME280;47168;48.104;20.730;2022-09-01T10:28:03;99917.09;;;21.91;37.91
61296;BME280;47168;48.104;20.730;2022-09-01T10:30:33;99901.72;;;22.00;40.18
61296;BME280;47168;48.104;20.730;2022-09-01T10:33:02;99899.53;;;22.04;41.84
61296;BME280;47168;48.104;20.730;2022-09-01T10:35:32;99909.53;;;22.10;39.27
61296;BME280;47168;48.104;20.730;2022-09-01T10:38:02;99905.31;;;22.15;37.81
61296;BME280;47168;48.104;20.730;2022-09-01T10:40:42;99901.03;;;22.21;39.69
61296;BME280;47168;48.104;20.730;2022-09-01T10:43:33;99910.28;;;22.18;37.86
61296;BME280;47168;48.104;20.730;2022-09-01T10:48:44;99913.97;;;22.02;40.52
61296;BME280;47168;48.104;20.730;2022-09-01T10:53:38;99917.00;;;21.84;37.42
61296;BME280;47168;48.104;20.730;2022-09-01T10:59:05;99910.59;;;21.39;39.72
61296;BME280;47168;48.104;20.730;2022-09-01T11:02:35;99906.09;;;21.32;38.92
61296;BME280;47168;48.104;20.730;2022-09-01T11:12:43;99908.13;;;21.29;38.85
61296;BME280;47168;48.104;20.730;2022-09-01T11:17:53;99906.84;;;20.94;39.88
61296;BME280;47168;48.104;20.730;2022-09-01T11:20:26;99911.06;;;20.88;40.25
61296;BME280;47168;48.104;20.730;2022-09-01T11:25:40;99910.22;;;20.88;40.75
61296;BME280;47168;48.104;20.730;2022-09-01T11:38:49;99914.97;;;20.78;40.12
61296;BME280;47168;48.104;20.730;2022-09-01T11:41:31;99920.19;;;20.71;41.47
61296;BME280;47168;48.104;20.730;2022-09-01T11:44:01;99932.59;;;20.72;41.34
61296;BME280;47168;48.104;20.730;2022-09-01T11:46:30;99927.22;;;20.72;41.40
61296;BME280;47168;48.104;20.730;2022-09-01T11:48:58;99922.53;;;20.66;39.97
61296;BME280;47168;48.104;20.730;2022-09-01T11:51:24;99924.38;;;20.73;40.11
61296;BME280;47168;48.104;20.730;2022-09-01T11:53:50;99910.25;;;20.80;41.70
61296;BME280;47168;48.104;20.730;2022-09-01T11:56:24;99919.13;;;20.88;41.68
61296;BME280;47168;48.104;20.730;2022-09-01T11:58:50;99913.44;;;20.83;40.23
61296;BME280;47168;48.104;20.730;2022-09-01T12:01:36;99916.81;;;20.77;40.31
61296;BME280;47168;48.104;20.730;2022-09-01T12:04:29;99913.88;;;20.95;42.89
61296;BME280;47168;48.104;20.730;2022-09-01T12:09:59;99909.19;;;20.97;41.40
61296;BME280;47168;48.104;20.730;2022-09-01T12:12:33;99907.00;;;20.92;40.49
61296;BME280;47168;48.104;20.730;2022-09-01T12:15:03;99903.38;;;20.85;39.69
61296;BME280;47168;48.104;20.730;2022-09-01T12:17:29;99901.69;;;20.84;40.72
61296;BME280;47168;48.104;20.730;2022-09-01T12:19:55;99901.00;;;20.90;40.85
61296;BME280;47168;48.104;20.730;2022-09-01T12:22:21;99891.22;;;20.98;40.01
61296;BME280;47168;48.104;20.730;2022-09-01T12:24:52;99887.84;;;21.04;40.10
61296;BME280;47168;48.104;20.730;2022-09-01T12:27:21;99897.69;;;21.12;40.34
61296;BME280;47168;48.104;20.730;2022-09-01T12:29:50;99893.28;;;21.19;39.44
61296;BME280;47168;48.104;20.730;2022-09-01T12:32:16;99890.50;;;21.35;41.70
61296;BME280;47168;48.104;20.730;2022-09-01T12:34:44;99892.91;;;21.53;38.65
61296;BME280;47168;48.104;20.730;2022-09-01T12:37:17;99897.16;;;21.48;38.67
61296;BME280;47168;48.104;20.730;2022-09-01T12:39:49;99898.09;;;21.55;39.96
61296;BME280;47168;48.104;20.730;2022-09-01T12:44:58;99884.94;;;21.83;39.17
61296;BME280;47168;48.104;20.730;2022-09-01T12:52:28;99883.41;;;22.04;38.53
61296;BME280;47168;48.104;20.730;2022-09-01T13:02:40;99879.06;;;22.02;38.60
61296;BME280;47168;48.104;20.730;2022-09-01T13:07:44;99874.50;;;22.03;39.35
61296;BME280;47168;48.104;20.730;2022-09-01T13:10:09;99877.72;;;21.98;37.07
61296;BME280;47168;48.104;20.730;2022-09-01T13:12:39;99877.34;;;21.87;37.05
61296;BME280;47168;48.104;20.730;2022-09-01T13:15:06;99874.94;;;21.77;40.43
61296;BME280;47168;48.104;20.730;2022-09-01T13:17:32;99882.59;;;21.80;38.24
61296;BME280;47168;48.104;20.730;2022-09-01T13:19:57;99884.41;;;21.88;38.57
61296;BME280;47168;48.104;20.730;2022-09-01T13:22:23;99874.94;;;21.92;40.11
61296;BME280;47168;48.104;20.730;2022-09-01T13:24:48;99874.75;;;21.93;38.53
61296;BME280;47168;48.104;20.730;2022-09-01T13:27:14;99873.03;;;22.00;37.87
61296;BME280;47168;48.104;20.730;2022-09-01T13:29:39;99864.72;;;22.10;40.43
61296;BME280;47168;48.104;20.730;2022-09-01T13:32:06;99860.81;;;22.13;38.69
61296;BME280;47168;48.104;20.730;2022-09-01T13:34:33;99867.28;;;22.18;37.64
61296;BME280;47168;48.104;20.730;2022-09-01T13:36:58;99857.66;;;22.09;38.70
61296;BME280;47168;48.104;20.730;2022-09-01T13:39:25;99864.41;;;22.05;38.62
61296;BME280;47168;48.104;20.730;2022-09-01T13:41:51;99858.19;;;22.05;38.53
61296;BME280;47168;48.104;20.730;2022-09-01T13:44:17;99859.88;;;22.06;37.48
61296;BME280;47168;48.104;20.730;2022-09-01T13:46:43;99860.72;;;22.06;40.33
61296;BME280;47168;48.104;20.730;2022-09-01T13:49:09;99857.13;;;22.14;39.92
61296;BME280;47168;48.104;20.730;2022-09-01T13:51:37;99859.66;;;22.30;39.86
61296;BME280;47168;48.104;20.730;2022-09-01T13:54:04;99855.34;;;22.21;37.24
61296;BME280;47168;48.104;20.730;2022-09-01T13:56:29;99864.13;;;22.15;38.95
61296;BME280;47168;48.104;20.730;2022-09-01T13:58:55;99868.59;;;22.23;39.20
61296;BME280;47168;48.104;20.730;2022-09-01T14:01:20;99856.16;;;22.21;38.17
61296;BME280;47168;48.104;20.730;2022-09-01T14:03:47;99851.88;;;22.35;39.18
61296;BME280;47168;48.104;20.730;2022-09-01T14:06:13;99856.38;;;22.35;38.40
61296;BME280;47168;48.104;20.730;2022-09-01T14:08:38;99847.03;;;22.31;37.72
61296;BME280;47168;48.104;20.730;2022-09-01T14:11:04;99850.78;;;22.21;38.02
61296;BME280;47168;48.104;20.730;2022-09-01T14:13:29;99855.00;;;22.39;38.97
61296;BME280;47168;48.104;20.730;2022-09-01T14:15:57;99845.91;;;22.55;37.12